TAF Flughafenprognosen

Nürnberg TAF, ausgegeben Sa 26.09. 01:00

TAF EDDN 252300Z 2600/2624 23005KT 9999 FEW012 BKN020 BECMG 2604/2607 25010KT PROB40 TEMPO 2609/2614 25015G25KT TEMPO 2614/2623 BKN013 PROB30 TEMPO 2618/2621 RADZ BKN009
GültigkeitVonBisWind in Beaufort
(Knoten)
Wolken
(Meter über Grund)
Sichtweite
(Meter)
Wettererscheinung
Grundvorhersage Sa 26.09. 02:00 So 27.09. 02:00 SW 2 (5) Stark bewölkt (610)
Leicht bewölkt (370)
>= 10000  
Übergang zu Sa 26.09. 06:00 Sa 26.09. 09:00 WSW 3 (10)      
Vorübergehend
(Wahrscheinlichkeit 40 %)
Sa 26.09. 11:00 Sa 26.09. 16:00 WSW 4 (15) - 6 (25)      
Vorübergehend Sa 26.09. 16:00 So 27.09. 01:00   Stark bewölkt (400)    
Vorübergehend
(Wahrscheinlichkeit 30 %)
Sa 26.09. 20:00 Sa 26.09. 23:00   Stark bewölkt (270)   Regen/Nieselregen

 

Hof TAF, ausgegeben Fr 25.09. 19:00

TAF EDQM 251700Z 2518/2603 23005KT 9999 BKN020 TEMPO 2518/2603 4000 -RA
GültigkeitVonBisWind in Beaufort
(Knoten)
Wolken
(Meter über Grund)
Sichtweite
(Meter)
Wettererscheinung
Grundvorhersage Fr 25.09. 20:00 Sa 26.09. 05:00 SW 2 (5) Stark bewölkt (610) >= 10000  
Vorübergehend Fr 25.09. 20:00 Sa 26.09. 05:00     4000 Regen (schwach)

 

Erfurt-Bindersleben TAF, ausgegeben Sa 26.09. 01:00

TAF EDDE 252300Z 2600/2624 VRB03KT 9999 FEW025 PROB40 TEMPO 2610/2617 4000 RA BKN005
GültigkeitVonBisWind in Beaufort
(Knoten)
Wolken
(Meter über Grund)
Sichtweite
(Meter)
Wettererscheinung
Grundvorhersage Sa 26.09. 02:00 So 27.09. 02:00 Uml 2 (3) Leicht bewölkt (760) >= 10000  
Vorübergehend
(Wahrscheinlichkeit 40 %)
Sa 26.09. 12:00 Sa 26.09. 19:00   Stark bewölkt (150) 4000 Regen

 

Augsburg TAF, ausgegeben Fr 25.09. 19:00

TAF EDMA 251700Z 2518/2603 23008KT 9999 SCT030
GültigkeitVonBisWind in Beaufort
(Knoten)
Wolken
(Meter über Grund)
Sichtweite
(Meter)
Wettererscheinung
Grundvorhersage Fr 25.09. 20:00 Sa 26.09. 05:00 SW 3 (8) Wolkig (910) >= 10000  

 

Frankfurt TAF, ausgegeben Sa 26.09. 01:00

TAF EDDF 252300Z 2600/2706 22010KT 9999 FEW025 BKN035 PROB30 TEMPO 2604/2612 26015G25KT TEMPO 2604/2706 RA BECMG 2618/2621 25005KT PROB40 TEMPO 2620/2706 4000 RADZ BKN010
GültigkeitVonBisWind in Beaufort
(Knoten)
Wolken
(Meter über Grund)
Sichtweite
(Meter)
Wettererscheinung
Grundvorhersage Sa 26.09. 02:00 So 27.09. 08:00 SW 3 (10) Stark bewölkt (1100)
Leicht bewölkt (760)
>= 10000  
Vorübergehend
(Wahrscheinlichkeit 30 %)
Sa 26.09. 06:00 Sa 26.09. 14:00 W 4 (15) - 6 (25)      
Vorübergehend Sa 26.09. 06:00 So 27.09. 08:00       Regen
Übergang zu Sa 26.09. 20:00 Sa 26.09. 23:00 WSW 2 (5)      
Vorübergehend
(Wahrscheinlichkeit 40 %)
Sa 26.09. 22:00 So 27.09. 08:00   Stark bewölkt (300) 4000 Regen/Nieselregen

 

Stuttgart TAF, ausgegeben Sa 26.09. 01:00

TAF EDDS 252300Z 2600/2624 24006KT 9999 FEW020 BKN040 BECMG 2602/2604 24011KT TEMPO 2608/2616 25015G25KT TEMPO 2608/2624 RA
GültigkeitVonBisWind in Beaufort
(Knoten)
Wolken
(Meter über Grund)
Sichtweite
(Meter)
Wettererscheinung
Grundvorhersage Sa 26.09. 02:00 So 27.09. 02:00 WSW 2 (6) Stark bewölkt (1200)
Leicht bewölkt (610)
>= 10000  
Übergang zu Sa 26.09. 04:00 Sa 26.09. 06:00 WSW 4 (11)      
Vorübergehend Sa 26.09. 10:00 Sa 26.09. 18:00 WSW 4 (15) - 6 (25)      
Vorübergehend Sa 26.09. 10:00 So 27.09. 02:00       Regen

 

München TAF, ausgegeben Sa 26.09. 01:00

TAF EDDM 252300Z 2600/2706 25010KT 9999 BKN030 BECMG 2606/2608 26015G25KT PROB40 TEMPO 2609/2615 26020G35KT BECMG 2622/2624 24010KT
GültigkeitVonBisWind in Beaufort
(Knoten)
Wolken
(Meter über Grund)
Sichtweite
(Meter)
Wettererscheinung
Grundvorhersage Sa 26.09. 02:00 So 27.09. 08:00 WSW 3 (10) Stark bewölkt (910) >= 10000  
Übergang zu Sa 26.09. 08:00 Sa 26.09. 10:00 W 4 (15) - 6 (25)      
Vorübergehend
(Wahrscheinlichkeit 40 %)
Sa 26.09. 11:00 Sa 26.09. 17:00 W 5 (20) - 8 (35)      
Übergang zu So 27.09. 00:00 So 27.09. 02:00 WSW 3 (10)